createdAt,value
2023-04-10T00:01:02.456Z,101247.91
2023-04-10T00:04:06.493Z,101244.38
2023-04-10T00:07:11.272Z,101241.31
2023-04-10T00:10:14.869Z,101235.59
2023-04-10T00:13:20.830Z,101230.50
2023-04-10T00:16:23.877Z,101232.97
2023-04-10T00:19:26.758Z,101231.78
2023-04-10T00:22:33.077Z,101216.94
2023-04-10T00:25:36.719Z,101222.34
2023-04-10T00:28:39.963Z,101221.72
2023-04-10T00:31:44.811Z,101219.31
2023-04-10T00:34:52.019Z,101211.78
2023-04-10T00:37:56.452Z,101214.44
2023-04-10T00:41:06.736Z,101216.75
2023-04-10T00:44:11.448Z,101210.91
2023-04-10T00:47:17.205Z,101206.81
2023-04-10T00:50:22.360Z,101204.06
2023-04-10T00:54:12.479Z,101206.19
2023-04-10T00:57:15.721Z,101202.31
2023-04-10T01:00:23.837Z,101199.53
2023-04-10T01:03:28.866Z,101195.66
2023-04-10T01:07:00.807Z,101198.88
2023-04-10T01:10:37.031Z,101197.91
2023-04-10T01:14:12.369Z,101194.62
2023-04-10T01:17:23.658Z,101205.09
2023-04-10T01:20:42.292Z,101197.62
2023-04-10T01:24:03.673Z,101191.25
2023-04-10T01:27:39.654Z,101187.66
2023-04-10T01:30:48.547Z,101187.81
2023-04-10T01:34:04.914Z,101196.63
2023-04-10T01:37:28.341Z,101182.59
2023-04-10T01:40:32.875Z,101189.44
2023-04-10T01:43:38.076Z,101177.72
2023-04-10T01:46:45.490Z,101179.34
2023-04-10T01:49:51.764Z,101186.03
2023-04-10T01:52:57.403Z,101189.63
2023-04-10T01:56:03.363Z,101200.03
2023-04-10T01:59:35.627Z,101195.34
2023-04-10T02:02:39.418Z,101188.69
2023-04-10T02:05:52.055Z,101190.63
2023-04-10T02:09:23.534Z,101183.59
2023-04-10T02:12:31.262Z,101190.16
2023-04-10T02:15:44.095Z,101188.50
2023-04-10T02:19:27.899Z,101184.28
2023-04-10T02:22:32.186Z,101187.56
2023-04-10T02:25:38.205Z,101188.88
2023-04-10T02:28:41.196Z,101188.34
2023-04-10T02:31:45.861Z,101190.50
2023-04-10T02:34:50.389Z,101188.53
2023-04-10T02:37:53.323Z,101184.00
2023-04-10T02:40:56.593Z,101176.16
2023-04-10T02:44:01.947Z,101182.66
2023-04-10T02:47:08.914Z,101179.09
2023-04-10T02:50:12.761Z,101170.97
2023-04-10T02:53:18.219Z,101169.66
2023-04-10T02:56:21.699Z,101165.44
2023-04-10T02:59:26.129Z,101166.41
2023-04-10T03:02:29.291Z,101161.53
2023-04-10T03:05:35.019Z,101156.31
2023-04-10T03:08:38.527Z,101153.88
2023-04-10T03:11:41.870Z,101150.47
2023-04-10T03:14:45.838Z,101153.22
2023-04-10T03:17:49.707Z,101156.03
2023-04-10T03:20:55.821Z,101153.72
2023-04-10T03:23:58.765Z,101154.88
2023-04-10T03:27:02.525Z,101165.13
2023-04-10T03:30:06.842Z,101161.53
2023-04-10T03:33:33.414Z,101161.88
2023-04-10T03:36:50.763Z,101164.34
2023-04-10T03:40:41.646Z,101160.88
2023-04-10T03:43:59.066Z,101165.13
2023-04-10T03:47:26.525Z,101165.47
2023-04-10T03:50:46.741Z,101163.81
2023-04-10T03:54:16.312Z,101165.28
2023-04-10T03:57:37.702Z,101174.91
2023-04-10T04:00:58.437Z,101170.19
2023-04-10T04:04:32.836Z,101179.44
2023-04-10T04:07:50.541Z,101174.09
2023-04-10T04:11:24.719Z,101171.97
2023-04-10T04:15:02.715Z,101178.16
2023-04-10T04:18:39.074Z,101176.88
2023-04-10T04:22:13.844Z,101172.78
2023-04-10T04:25:31.094Z,101189.22
2023-04-10T04:29:02.358Z,101189.06
2023-04-10T04:32:41.843Z,101186.94
2023-04-10T04:36:14.520Z,101189.37
2023-04-10T04:39:48.969Z,101187.59
2023-04-10T04:43:24.476Z,101195.72
2023-04-10T04:47:01.328Z,101196.22
2023-04-10T04:50:28.708Z,101196.37
2023-04-10T04:54:04.348Z,101191.31
2023-04-10T04:57:33.321Z,101204.34
2023-04-10T05:00:57.371Z,101210.19
2023-04-10T05:04:28.854Z,101213.28
2023-04-10T05:07:45.791Z,101208.19
2023-04-10T05:11:02.563Z,101213.16
2023-04-10T05:14:32.661Z,101213.00
2023-04-10T05:17:51.679Z,101217.44
2023-04-10T05:21:19.714Z,101221.91
2023-04-10T05:24:55.532Z,101223.75
2023-04-10T05:28:23.492Z,101220.03
2023-04-10T05:31:58.077Z,101219.25
2023-04-10T05:35:31.779Z,101222.06
2023-04-10T05:38:52.603Z,101217.75
2023-04-10T05:42:09.870Z,101221.59
2023-04-10T05:45:36.305Z,101221.38
2023-04-10T05:49:13.307Z,101220.06
2023-04-10T05:52:48.032Z,101226.16
2023-04-10T05:56:05.100Z,101223.34
2023-04-10T06:10:53.981Z,101222.03
2023-04-10T06:14:12.138Z,101223.56
2023-04-10T06:17:44.142Z,101232.59
2023-04-10T06:21:02.427Z,101220.97
2023-04-10T06:24:28.267Z,101229.16
2023-04-10T06:27:57.368Z,101221.53
2023-04-10T06:31:26.381Z,101223.19
2023-04-10T06:34:42.471Z,101225.03
2023-04-10T06:41:47.468Z,101231.72
2023-04-10T06:45:25.497Z,101226.06
2023-04-10T06:49:02.783Z,101221.97
2023-04-10T06:52:20.455Z,101218.66
2023-04-10T06:56:07.712Z,101217.78
2023-04-10T06:59:27.799Z,101220.91
2023-04-10T07:02:46.686Z,101216.34
2023-04-10T07:06:04.550Z,101218.22
2023-04-10T07:09:38.910Z,101218.91
2023-04-10T07:16:38.332Z,101214.00
2023-04-10T07:20:00.674Z,101209.84
2023-04-10T07:30:32.180Z,101208.47
2023-04-10T07:34:07.444Z,101195.66
2023-04-10T07:37:44.446Z,101197.38
2023-04-10T07:41:26.880Z,101192.28
2023-04-10T07:45:02.673Z,101194.19
2023-04-10T07:48:43.560Z,101189.09
2023-04-10T07:52:20.513Z,101177.84
2023-04-10T07:55:55.209Z,101178.81
2023-04-10T07:59:31.463Z,101181.03
2023-04-10T08:03:07.911Z,101170.78
2023-04-10T08:06:37.922Z,101167.97
2023-04-10T08:10:14.591Z,101168.34
2023-04-10T08:13:49.807Z,101165.19
2023-04-10T08:17:07.389Z,101164.97
2023-04-10T08:20:43.286Z,101156.44
2023-04-10T08:24:18.272Z,101159.16
2023-04-10T08:27:43.163Z,101154.00
2023-04-10T08:31:11.516Z,101165.75
2023-04-10T08:34:45.904Z,101163.00
2023-04-10T08:41:53.248Z,101155.00
2023-04-10T08:44:58.128Z,101152.88
2023-04-10T08:48:38.483Z,101152.34
2023-04-10T08:52:16.968Z,101148.06
2023-04-10T08:55:54.641Z,101146.28
2023-04-10T08:59:12.489Z,101140.62
2023-04-10T09:02:42.959Z,101140.84
2023-04-10T09:06:13.701Z,101143.38
2023-04-10T09:09:38.882Z,101135.41
2023-04-10T09:12:58.968Z,101126.72
2023-04-10T09:16:37.496Z,101131.00
2023-04-10T09:27:33.824Z,101114.09
2023-04-10T09:31:29.830Z,101110.53
2023-04-10T09:34:58.757Z,101110.81
2023-04-10T09:42:16.549Z,101103.84
2023-04-10T09:56:38.809Z,101086.66
2023-04-10T10:00:09.816Z,101078.59
2023-04-10T10:03:45.967Z,101081.97
2023-04-10T10:07:26.227Z,101080.91
2023-04-10T10:18:26.019Z,101071.37
2023-04-10T10:22:04.676Z,101071.06
2023-04-10T10:26:01.181Z,101079.66
2023-04-10T10:41:08.839Z,101071.88
2023-04-10T10:44:46.235Z,101071.81
2023-04-10T10:48:28.799Z,101064.69
2023-04-10T10:59:28.995Z,101056.81
2023-04-10T11:28:34.703Z,101043.97
2023-04-10T12:02:54.353Z,101040.22
2023-04-10T12:10:34.752Z,101041.81
2023-04-10T13:10:32.940Z,100962.25
2023-04-10T13:21:12.886Z,100938.37
2023-04-10T13:24:55.092Z,100940.72
2023-04-10T13:28:32.701Z,100940.88
2023-04-10T13:32:17.664Z,100935.28
2023-04-10T13:36:26.893Z,100927.34
2023-04-10T13:40:11.662Z,100916.41
2023-04-10T14:05:44.010Z,100881.91
2023-04-10T14:34:52.560Z,100828.47
2023-04-10T16:13:05.803Z,100726.16
2023-04-10T16:31:03.880Z,100715.69
2023-04-10T16:34:30.800Z,100708.88
2023-04-10T17:07:07.118Z,100691.69
2023-04-10T17:10:54.085Z,100688.22
2023-04-10T17:43:29.434Z,100720.59
2023-04-10T17:58:11.523Z,100740.62
2023-04-10T18:12:38.840Z,100749.69
2023-04-10T18:16:09.029Z,100753.44
2023-04-10T18:19:46.121Z,100754.88
2023-04-10T18:23:30.938Z,100751.69
2023-04-10T18:27:15.746Z,100753.22
2023-04-10T18:31:10.084Z,100752.16
2023-04-10T18:49:59.949Z,100759.53
2023-04-10T19:00:46.597Z,100758.97
2023-04-10T19:08:03.741Z,100800.66
2023-04-10T19:11:27.874Z,100789.09
2023-04-10T19:15:08.292Z,100781.62
2023-04-10T19:29:28.062Z,100776.50
2023-04-10T19:33:11.454Z,100785.81
2023-04-10T19:40:42.842Z,100783.97
2023-04-10T19:47:41.024Z,100771.72
2023-04-10T19:51:23.453Z,100774.56
2023-04-10T19:54:53.004Z,100772.91
2023-04-10T19:58:21.004Z,100763.38
2023-04-10T20:01:46.872Z,100764.22
2023-04-10T20:12:37.040Z,100761.72
2023-04-10T20:15:56.605Z,100757.97
2023-04-10T20:19:44.921Z,100755.69
2023-04-10T20:23:07.914Z,100752.25
2023-04-10T20:26:46.648Z,100752.34
2023-04-10T20:30:21.287Z,100755.91
2023-04-10T20:33:48.845Z,100753.16
2023-04-10T20:37:32.509Z,100744.69
2023-04-10T20:44:50.988Z,100745.13
2023-04-10T20:48:25.595Z,100734.91
2023-04-10T21:03:11.999Z,100729.53
2023-04-10T21:10:07.445Z,100734.50
2023-04-10T21:17:31.319Z,100726.00
2023-04-10T21:21:01.835Z,100730.31
2023-04-10T21:24:36.710Z,100737.53
2023-04-10T22:11:51.094Z,100697.69
2023-04-10T22:15:12.223Z,100696.94
2023-04-10T22:18:47.992Z,100692.75
2023-04-10T22:22:23.435Z,100684.72
2023-04-10T22:26:11.307Z,100682.72
2023-04-10T22:30:03.221Z,100678.91
2023-04-10T22:37:08.038Z,100680.87
2023-04-10T22:40:37.460Z,100679.28
2023-04-10T22:44:15.114Z,100677.69
2023-04-10T22:54:49.009Z,100677.59
2023-04-10T23:01:58.059Z,100672.66
2023-04-10T23:05:21.575Z,100666.97
2023-04-10T23:08:56.164Z,100670.06
2023-04-10T23:23:21.013Z,100670.91
2023-04-10T23:26:43.664Z,100673.34
2023-04-10T23:30:28.742Z,100658.59
2023-04-10T23:37:49.012Z,100662.28
2023-04-10T23:41:17.383Z,100654.59
2023-04-10T23:44:45.224Z,100651.03
2023-04-10T23:55:41.654Z,100649.47
2023-04-10T23:59:19.475Z,100653.91
